Terminal Aerodrome Forecast
Issued by NWS

Home | Current Version | Previous Version | Text Only | Print | Product List | Glossary On
Versions: 1 2 3 4 5 6 7 8 9 10 11 12 13
069
FTUS43 KDTX 280538
TAFMBS
TAF
KMBS 280538Z 2806/2906 VRB03KT 6SM -SHRA OVC060
     FM281300 04005KT P6SM BKN120 OVC250
     FM281600 06007KT P6SM BKN080 OVC150 PROB30 2817/2821 3SM SHRA
      OVC040
     FM282100 06007KT P6SM OVC045=

USA.gov is the U.S. government's official web portal to all federal, state and local government web resources and services.